Terminal Aerodrome Forecast
Issued by NWS

Home | Current Version | Previous Version | Text Only | Print | Product List | Glossary On
Versions: 1 2 3 4 5 6 7 8 9 10 11 12 13
293
FTUS46 KSGX 272341
TAFONT
TAF
KONT 272341Z 2800/2906 25010G18KT P6SM SKC
     FM280500 VRB04KT P6SM SKC
     FM281100 VRB04KT 4SM BR BKN008
     FM281700 VRB04KT 6SM HZ FEW015
     FM282000 25010G18KT P6SM SKC
     FM290500 VRB04KT P6SM SKC=

USA.gov is the U.S. government's official web portal to all federal, state and local government web resources and services.